Time;durP1;ratioP1;P1;durP2;ratioP2;P2;SDS_P1;SDS_P2;PMS_P1;PMS_P2;Temp;Humidity;BMP_temperature;BMP_pressure;BME280_temperature;BME280_humidity;BME280_pressure;Samples;Min_cycle;Max_cycle;Signal;HPM_P1;HPM_P2
2023/08/17 00:01:42;;;;;;;17.73;9.10;;;19.60;99.90;;;;;;5040090;28;20060;-66
2023/08/17 00:04:08;;;;;;;10.68;8.50;;;19.60;99.90;;;;;;5040326;28;20056;-66
2023/08/17 00:06:33;;;;;;;14.07;9.13;;;19.60;99.90;;;;;;5037743;28;20021;-66
2023/08/17 00:08:59;;;;;;;12.65;9.30;;;19.60;99.90;;;;;;5027065;28;20108;-64
2023/08/17 00:11:25;;;;;;;17.17;8.25;;;19.60;99.90;;;;;;5032531;28;20103;-67
2023/08/17 00:13:51;;;;;;;12.88;9.45;;;19.60;99.90;;;;;;5041249;28;20044;-66
2023/08/17 00:16:17;;;;;;;16.52;8.85;;;19.60;99.90;;;;;;5042806;28;20036;-66
2023/08/17 00:18:43;;;;;;;14.90;9.52;;;19.60;99.90;;;;;;5048105;28;20025;-66
2023/08/17 00:21:08;;;;;;;12.75;9.20;;;19.50;99.90;;;;;;5049850;28;20066;-67
2023/08/17 00:23:34;;;;;;;12.68;8.93;;;19.50;99.90;;;;;;5045787;28;20112;-66
2023/08/17 00:26:00;;;;;;;16.65;9.15;;;19.50;99.90;;;;;;5045826;28;20033;-66
2023/08/17 00:28:27;;;;;;;17.20;9.20;;;19.50;99.90;;;;;;5047609;28;20041;-66
2023/08/17 00:30:53;;;;;;;15.45;8.57;;;19.50;99.90;;;;;;5053830;28;20031;-66
2023/08/17 00:33:18;;;;;;;12.98;8.82;;;19.50;99.90;;;;;;5034553;28;20029;-66
2023/08/17 00:35:45;;;;;;;16.27;8.77;;;19.50;99.90;;;;;;5053066;28;20021;-65
2023/08/17 00:38:11;;;;;;;16.92;8.77;;;19.50;99.90;;;;;;5022882;28;20041;-67
2023/08/17 00:40:37;;;;;;;14.93;7.90;;;19.50;99.90;;;;;;5036984;28;20030;-66
2023/08/17 00:43:04;;;;;;;14.93;9.30;;;19.40;99.90;;;;;;5039120;28;20041;-66
2023/08/17 00:45:31;;;;;;;13.82;8.48;;;19.50;99.90;;;;;;5045695;28;20074;-66
2023/08/17 00:47:58;;;;;;;11.40;8.60;;;19.40;99.90;;;;;;5041352;28;20044;-67
2023/08/17 00:50:25;;;;;;;14.45;8.30;;;19.40;99.90;;;;;;5037134;28;20027;-66
2023/08/17 00:52:52;;;;;;;15.15;8.95;;;19.40;99.90;;;;;;5039636;28;20067;-67
2023/08/17 00:55:19;;;;;;;13.05;8.65;;;19.40;99.90;;;;;;5037601;28;20082;-66
2023/08/17 00:57:45;;;;;;;20.52;10.57;;;19.20;99.90;;;;;;5045541;28;20025;-66
2023/08/17 01:00:13;;;;;;;20.33;9.68;;;19.10;99.90;;;;;;5049583;28;20037;-66
2023/08/17 01:02:43;;;;;;;20.58;10.63;;;19.00;99.90;;;;;;5042926;28;20029;-65
2023/08/17 01:05:09;;;;;;;15.45;10.02;;;18.90;99.90;;;;;;5042842;28;20061;-66
2023/08/17 01:07:34;;;;;;;14.70;10.15;;;18.80;99.90;;;;;;5045625;28;20076;-66
2023/08/17 01:10:01;;;;;;;16.88;11.63;;;18.80;99.90;;;;;;5040229;28;20763;-67
2023/08/17 01:12:31;;;;;;;26.02;12.07;;;18.80;99.90;;;;;;5038195;28;20035;-65
2023/08/17 01:15:20;;;;;;;16.02;11.95;;;18.80;99.90;;;;;;5041623;28;20052;-66
2023/08/17 01:18:04;;;;;;;20.73;10.98;;;18.80;99.90;;;;;;5046207;28;20036;-66
2023/08/17 01:20:31;;;;;;;17.60;9.85;;;18.90;99.90;;;;;;5034441;28;20032;-66
2023/08/17 01:23:05;;;;;;;18.23;10.63;;;18.90;99.90;;;;;;5046446;28;20049;-66
2023/08/17 01:25:36;;;;;;;16.02;10.27;;;18.90;99.90;;;;;;5037073;28;20048;-66
2023/08/17 01:28:05;;;;;;;16.73;10.13;;;18.90;99.90;;;;;;5040887;28;20041;-66
2023/08/17 01:30:45;;;;;;;15.70;9.00;;;19.00;99.90;;;;;;5047309;28;20170;-66
2023/08/17 01:33:13;;;;;;;13.60;10.63;;;19.00;99.90;;;;;;5038935;28;20021;-66
2023/08/17 01:35:53;;;;;;;15.68;9.13;;;19.10;99.90;;;;;;5041487;28;20057;-66
2023/08/17 01:38:22;;;;;;;14.18;9.25;;;19.10;99.90;;;;;;5048097;28;20156;-66
2023/08/17 01:40:49;;;;;;;12.32;8.93;;;19.00;99.90;;;;;;5047396;28;20033;-66
2023/08/17 01:43:16;;;;;;;10.95;8.13;;;19.00;99.90;;;;;;5043983;28;20236;-65
2023/08/17 01:45:42;;;;;;;12.25;8.32;;;19.00;99.90;;;;;;5049614;28;20491;-66
2023/08/17 01:48:08;;;;;;;14.63;8.55;;;19.00;99.90;;;;;;5043164;28;20017;-66
2023/08/17 01:50:34;;;;;;;14.23;7.90;;;19.00;99.90;;;;;;5051077;28;20017;-66
2023/08/17 01:53:00;;;;;;;12.82;7.95;;;19.00;99.90;;;;;;5051758;28;20032;-65
2023/08/17 01:55:26;;;;;;;14.50;8.23;;;19.00;99.90;;;;;;5047243;28;20059;-66
2023/08/17 01:57:52;;;;;;;14.75;6.85;;;19.00;99.90;;;;;;5048313;28;20025;-66
2023/08/17 02:00:18;;;;;;;14.30;7.82;;;19.00;99.90;;;;;;5042144;28;20099;-66
2023/08/17 02:02:44;;;;;;;10.85;7.15;;;19.00;99.90;;;;;;5046554;28;20025;-66
2023/08/17 02:05:10;;;;;;;12.90;7.43;;;19.00;99.90;;;;;;5035597;28;20072;-66
2023/08/17 02:07:37;;;;;;;13.32;7.30;;;19.00;99.90;;;;;;5041791;28;20773;-66
2023/08/17 02:10:03;;;;;;;11.13;6.22;;;18.90;99.90;;;;;;5040111;28;20045;-66
2023/08/17 02:12:29;;;;;;;11.00;6.72;;;18.90;99.90;;;;;;5040507;28;20033;-66
2023/08/17 02:14:54;;;;;;;10.82;7.03;;;18.90;99.90;;;;;;5042132;28;20024;-66
2023/08/17 02:17:22;;;;;;;8.95;6.93;;;18.90;99.90;;;;;;5045490;28;20123;-65
2023/08/17 02:19:48;;;;;;;7.47;6.43;;;18.80;99.90;;;;;;5044525;28;20032;-64
2023/08/17 02:22:15;;;;;;;10.63;6.28;;;18.80;99.90;;;;;;5049586;28;20013;-65
2023/08/17 02:24:41;;;;;;;11.32;7.47;;;18.80;99.90;;;;;;5042805;28;20504;-66
2023/08/17 02:27:09;;;;;;;7.30;6.05;;;18.80;99.90;;;;;;5040857;28;20037;-66
2023/08/17 02:29:34;;;;;;;8.45;5.65;;;18.80;99.90;;;;;;5049081;28;20021;-66
2023/08/17 02:32:00;;;;;;;11.48;6.70;;;18.80;99.90;;;;;;5047170;28;20037;-66
2023/08/17 02:34:26;;;;;;;8.38;5.72;;;18.80;99.90;;;;;;5046562;28;20584;-66
2023/08/17 02:36:52;;;;;;;9.57;6.15;;;18.80;99.90;;;;;;5047548;28;20044;-66
2023/08/17 02:39:18;;;;;;;11.02;6.28;;;18.80;99.90;;;;;;5041712;28;20029;-66
2023/08/17 02:41:44;;;;;;;15.52;6.75;;;18.80;99.90;;;;;;5051040;28;20023;-66
2023/08/17 02:44:10;;;;;;;9.40;5.80;;;18.70;99.90;;;;;;5039858;28;20029;-66
2023/08/17 02:46:36;;;;;;;8.68;6.95;;;18.70;99.90;;;;;;5049244;28;20021;-65
2023/08/17 02:49:02;;;;;;;11.15;6.95;;;18.70;99.90;;;;;;5044353;28;20026;-66
2023/08/17 02:51:28;;;;;;;13.07;7.32;;;18.70;99.90;;;;;;5046757;28;20449;-66
2023/08/17 02:53:54;;;;;;;10.93;6.40;;;18.60;99.90;;;;;;5042346;28;20486;-66
2023/08/17 02:56:19;;;;;;;9.13;6.72;;;18.60;99.90;;;;;;5045834;28;20024;-65
2023/08/17 02:58:45;;;;;;;12.20;7.00;;;18.60;99.90;;;;;;5043785;28;20394;-67
2023/08/17 03:01:11;;;;;;;10.85;6.65;;;18.50;99.90;;;;;;5036877;28;20120;-67
2023/08/17 03:03:37;;;;;;;9.52;6.13;;;18.50;99.90;;;;;;5036811;28;21182;-66
2023/08/17 03:06:03;;;;;;;17.90;7.65;;;18.40;99.90;;;;;;5043192;28;20052;-66
2023/08/17 03:08:29;;;;;;;12.98;7.40;;;18.40;99.90;;;;;;5044291;28;20036;-66
2023/08/17 03:10:55;;;;;;;11.95;6.85;;;18.40;99.90;;;;;;5044519;28;20055;-66
2023/08/17 03:13:20;;;;;;;12.75;7.32;;;18.40;99.90;;;;;;5032774;28;20075;-66
2023/08/17 03:15:46;;;;;;;9.57;7.15;;;18.30;99.90;;;;;;5042162;28;20037;-66
2023/08/17 03:18:13;;;;;;;13.68;7.40;;;18.30;99.90;;;;;;5045283;28;20049;-65
2023/08/17 03:20:39;;;;;;;13.77;7.82;;;18.30;99.90;;;;;;5046710;28;20025;-66
2023/08/17 03:23:08;;;;;;;14.65;7.78;;;18.30;99.90;;;;;;5041682;28;20036;-66
2023/08/17 03:25:34;;;;;;;13.52;7.57;;;18.30;99.90;;;;;;5035839;28;20478;-66
2023/08/17 03:28:00;;;;;;;10.10;6.90;;;18.10;99.90;;;;;;5042064;28;20510;-66
2023/08/17 03:30:26;;;;;;;13.45;7.82;;;18.10;99.90;;;;;;5041652;28;20497;-65
2023/08/17 03:32:52;;;;;;;11.20;8.30;;;18.10;99.90;;;;;;5042416;28;20053;-67
2023/08/17 03:35:18;;;;;;;11.45;7.47;;;18.00;99.90;;;;;;5013326;28;20068;-65
2023/08/17 03:37:45;;;;;;;13.77;8.85;;;18.00;99.90;;;;;;5038274;28;20114;-66
2023/08/17 03:40:11;;;;;;;16.48;8.23;;;18.00;99.90;;;;;;5040938;28;20556;-66
2023/08/17 03:42:37;;;;;;;11.82;8.07;;;18.00;99.90;;;;;;5035814;28;20029;-66
2023/08/17 03:45:03;;;;;;;13.77;8.65;;;17.90;99.90;;;;;;5044063;28;20109;-66
2023/08/17 03:47:29;;;;;;;14.32;9.82;;;18.00;99.90;;;;;;5040335;28;20462;-65
2023/08/17 03:49:55;;;;;;;11.75;9.50;;;17.90;99.90;;;;;;5044281;28;20100;-66
2023/08/17 03:52:21;;;;;;;16.60;8.27;;;18.00;99.90;;;;;;5040260;28;20502;-65
2023/08/17 03:54:47;;;;;;;13.98;8.45;;;18.00;99.90;;;;;;5040782;28;20040;-66
2023/08/17 03:57:13;;;;;;;14.07;9.38;;;18.10;99.90;;;;;;5042380;28;20021;-66
2023/08/17 03:59:39;;;;;;;14.27;8.32;;;18.10;99.90;;;;;;5046866;28;20047;-66
2023/08/17 04:02:05;;;;;;;12.90;7.60;;;18.10;99.90;;;;;;5038479;28;20138;-66
2023/08/17 04:04:31;;;;;;;18.02;7.95;;;18.10;99.90;;;;;;5044656;28;20104;-67
2023/08/17 04:06:57;;;;;;;11.45;8.32;;;18.10;99.90;;;;;;5046638;28;20028;-66
2023/08/17 04:09:23;;;;;;;13.10;7.25;;;18.10;99.90;;;;;;5043105;28;20506;-65
2023/08/17 04:11:49;;;;;;;13.02;7.78;;;18.10;99.90;;;;;;5041218;28;20037;-65
2023/08/17 04:14:14;;;;;;;10.50;7.38;;;18.20;99.90;;;;;;5041811;28;20053;-66
2023/08/17 04:16:41;;;;;;;12.63;7.82;;;18.10;99.90;;;;;;5046713;28;20484;-66
2023/08/17 04:19:07;;;;;;;13.15;8.23;;;18.20;99.90;;;;;;5040229;28;20491;-64
2023/08/17 04:21:33;;;;;;;16.33;7.68;;;18.20;99.90;;;;;;5044156;28;20498;-65
2023/08/17 04:23:59;;;;;;;15.32;8.15;;;18.20;99.90;;;;;;5048890;28;20084;-65
2023/08/17 04:26:24;;;;;;;15.45;9.13;;;18.20;99.90;;;;;;5047647;28;20021;-65
2023/08/17 04:28:50;;;;;;;12.60;8.93;;;18.20;99.90;;;;;;5040922;28;20068;-66
2023/08/17 04:31:19;;;;;;;12.90;8.23;;;18.20;99.90;;;;;;5040473;28;20052;-65
2023/08/17 04:33:45;;;;;;;19.17;8.50;;;18.20;99.90;;;;;;5019465;28;20399;-65
2023/08/17 04:36:11;;;;;;;11.18;8.15;;;18.20;99.90;;;;;;5036983;28;20044;-65
2023/08/17 04:38:36;;;;;;;12.05;7.85;;;18.20;99.90;;;;;;5040436;28;20029;-65
2023/08/17 04:41:03;;;;;;;12.68;7.43;;;18.20;99.90;;;;;;5040030;28;20182;-65
2023/08/17 04:43:28;;;;;;;12.27;8.32;;;18.20;99.90;;;;;;5039644;28;20129;-65
2023/08/17 04:45:54;;;;;;;13.88;8.75;;;18.20;99.90;;;;;;5039964;28;20037;-65
2023/08/17 04:48:21;;;;;;;15.93;7.93;;;18.10;99.90;;;;;;5037755;28;20017;-66
2023/08/17 04:50:47;;;;;;;18.77;9.80;;;18.10;99.90;;;;;;5037948;28;20380;-65
2023/08/17 04:53:12;;;;;;;17.08;9.45;;;18.10;99.90;;;;;;5036959;28;20038;-65
2023/08/17 04:55:38;;;;;;;14.15;10.55;;;18.20;99.90;;;;;;5040530;28;20025;-65
2023/08/17 04:58:04;;;;;;;17.73;10.05;;;18.20;99.90;;;;;;5038480;28;20036;-66
2023/08/17 05:00:30;;;;;;;17.98;9.18;;;18.10;99.90;;;;;;5041108;28;20054;-66
2023/08/17 05:02:56;;;;;;;13.23;9.10;;;18.10;99.90;;;;;;5041404;28;21247;-66
2023/08/17 05:05:23;;;;;;;15.07;9.60;;;18.20;99.90;;;;;;5040345;28;20063;-65
2023/08/17 05:07:48;;;;;;;18.65;10.85;;;18.20;99.90;;;;;;5037444;28;20032;-66
2023/08/17 05:10:15;;;;;;;13.60;9.13;;;18.20;99.90;;;;;;5043314;28;20025;-65
2023/08/17 05:12:40;;;;;;;17.88;10.00;;;18.20;99.90;;;;;;5042222;28;20030;-65
2023/08/17 05:15:07;;;;;;;13.30;8.82;;;18.20;99.90;;;;;;5042152;28;20547;-66
2023/08/17 05:17:32;;;;;;;15.60;9.40;;;18.20;99.90;;;;;;5045116;28;20162;-65
2023/08/17 05:19:58;;;;;;;17.00;10.38;;;18.20;99.90;;;;;;5047815;28;20111;-64
2023/08/17 05:22:24;;;;;;;11.75;9.43;;;18.30;99.90;;;;;;5045085;28;20112;-65
2023/08/17 05:24:50;;;;;;;17.05;10.40;;;18.30;99.90;;;;;;5045682;28;20033;-64
2023/08/17 05:27:16;;;;;;;18.73;9.45;;;18.30;99.90;;;;;;5032824;28;20028;-65
2023/08/17 05:29:41;;;;;;;13.43;9.07;;;18.30;99.90;;;;;;5046522;28;20028;-65
2023/08/17 05:32:07;;;;;;;15.55;9.25;;;18.30;99.90;;;;;;5040148;28;20029;-65
2023/08/17 05:34:32;;;;;;;14.15;9.10;;;18.30;99.90;;;;;;5016505;28;20037;-65
2023/08/17 05:36:58;;;;;;;14.32;9.85;;;18.30;99.90;;;;;;5044406;28;20486;-65
2023/08/17 05:39:24;;;;;;;17.70;9.88;;;18.30;99.90;;;;;;5042080;28;20486;-65
2023/08/17 05:41:50;;;;;;;15.20;9.32;;;18.30;99.90;;;;;;5039501;28;20037;-65
2023/08/17 05:44:17;;;;;;;13.50;9.45;;;18.30;99.90;;;;;;5046685;28;20563;-65
2023/08/17 05:46:43;;;;;;;16.83;10.23;;;18.40;99.90;;;;;;5049113;28;20509;-65
2023/08/17 05:49:08;;;;;;;12.80;8.88;;;18.40;99.90;;;;;;5038028;28;20033;-66
2023/08/17 05:51:34;;;;;;;24.80;9.85;;;18.40;99.90;;;;;;5045953;28;20103;-65
2023/08/17 05:54:00;;;;;;;14.43;10.40;;;18.40;99.90;;;;;;5048880;28;20063;-65
2023/08/17 05:56:25;;;;;;;18.40;9.32;;;18.40;99.90;;;;;;5049260;28;20028;-65
2023/08/17 05:58:51;;;;;;;18.27;10.85;;;18.30;99.90;;;;;;5041014;28;20049;-66
2023/08/17 06:01:17;;;;;;;15.50;9.23;;;18.40;99.90;;;;;;5044185;28;20044;-65
2023/08/17 06:03:43;;;;;;;17.10;10.57;;;18.50;99.90;;;;;;5044013;28;20116;-65
2023/08/17 06:06:09;;;;;;;20.92;10.20;;;18.50;99.90;;;;;;5044759;28;20125;-65
2023/08/17 06:08:35;;;;;;;17.20;11.43;;;18.60;99.90;;;;;;5034224;28;20017;-65
2023/08/17 06:11:01;;;;;;;22.08;11.55;;;18.70;99.90;;;;;;5040261;28;20037;-65
2023/08/17 06:13:26;;;;;;;15.68;10.82;;;18.80;99.90;;;;;;5047352;28;20442;-66
2023/08/17 06:15:52;;;;;;;13.55;9.25;;;18.90;99.90;;;;;;5041134;28;20131;-65
2023/08/17 06:18:20;;;;;;;13.32;8.77;;;19.00;99.90;;;;;;5038642;28;20021;-66
2023/08/17 06:20:47;;;;;;;13.05;9.48;;;19.10;99.90;;;;;;5045986;28;20052;-65
2023/08/17 06:23:13;;;;;;;17.85;9.40;;;19.20;99.90;;;;;;5035072;28;20117;-65
2023/08/17 06:25:38;;;;;;;15.15;8.98;;;19.30;99.90;;;;;;5044435;28;20108;-65
2023/08/17 06:28:06;;;;;;;17.13;8.45;;;19.30;99.90;;;;;;5040435;28;20116;-65
2023/08/17 06:30:32;;;;;;;11.93;8.40;;;19.40;99.90;;;;;;5035219;28;20030;-65
2023/08/17 06:32:58;;;;;;;17.80;9.82;;;19.30;99.90;;;;;;5039383;28;20030;-65
2023/08/17 06:35:24;;;;;;;13.70;8.70;;;19.30;99.90;;;;;;5010522;28;20390;-65
2023/08/17 06:37:51;;;;;;;18.40;9.30;;;19.30;99.90;;;;;;5039812;28;20033;-65
2023/08/17 06:40:17;;;;;;;14.75;9.35;;;19.30;99.90;;;;;;5035389;28;20031;-65
2023/08/17 06:42:42;;;;;;;17.42;8.77;;;19.30;99.90;;;;;;5033692;28;20025;-65
2023/08/17 06:45:09;;;;;;;14.43;9.82;;;19.30;99.90;;;;;;5035467;28;20104;-65
2023/08/17 06:47:35;;;;;;;14.10;9.13;;;19.20;99.90;;;;;;5044899;28;20027;-65
2023/08/17 06:50:01;;;;;;;14.40;9.00;;;19.10;99.90;;;;;;5041998;28;20116;-66
2023/08/17 06:52:26;;;;;;;17.40;9.63;;;19.20;99.90;;;;;;5038467;28;20429;-65
2023/08/17 06:54:53;;;;;;;14.50;9.63;;;19.20;99.90;;;;;;5035821;28;20056;-66
2023/08/17 06:57:18;;;;;;;12.75;9.00;;;19.20;99.90;;;;;;5060385;28;20026;-65
2023/08/17 06:59:45;;;;;;;11.82;8.55;;;19.30;99.90;;;;;;5039119;28;20048;-66
2023/08/17 07:02:11;;;;;;;14.93;8.77;;;19.40;99.90;;;;;;5035201;28;20482;-65
2023/08/17 07:04:37;;;;;;;13.70;8.70;;;19.50;99.90;;;;;;5034351;28;20033;-65
2023/08/17 07:07:03;;;;;;;12.48;8.63;;;19.50;99.90;;;;;;5035192;28;20025;-65
2023/08/17 07:09:29;;;;;;;12.82;8.73;;;19.60;99.90;;;;;;5040521;28;20486;-65
2023/08/17 07:11:54;;;;;;;10.80;7.38;;;19.60;99.90;;;;;;5034242;28;20105;-65
2023/08/17 07:14:20;;;;;;;14.27;8.45;;;19.70;99.90;;;;;;5043563;28;20721;-65
2023/08/17 07:16:46;;;;;;;13.02;9.55;;;19.80;99.90;;;;;;5045828;28;20084;-65
2023/08/17 07:19:13;;;;;;;16.38;9.23;;;19.90;99.90;;;;;;5037822;28;20033;-65
2023/08/17 07:21:39;;;;;;;13.18;8.23;;;20.00;99.90;;;;;;5036102;28;20021;-64
2023/08/17 07:24:15;;;;;;;9.68;7.03;;;20.20;99.90;;;;;;5033420;28;20032;-66
2023/08/17 07:26:41;;;;;;;14.40;8.40;;;20.30;99.90;;;;;;5046109;28;20526;-66
2023/08/17 07:29:07;;;;;;;12.05;7.22;;;20.50;99.90;;;;;;5047894;28;20037;-65
2023/08/17 07:31:37;;;;;;;11.35;7.38;;;20.50;99.90;;;;;;5047718;28;20024;-65
2023/08/17 07:34:06;;;;;;;10.65;6.80;;;20.70;99.90;;;;;;5021680;28;20112;-65
2023/08/17 07:36:33;;;;;;;10.93;6.93;;;20.90;99.90;;;;;;5043861;28;20033;-65
2023/08/17 07:39:00;;;;;;;12.20;6.60;;;21.20;99.90;;;;;;5040964;28;20033;-64
2023/08/17 07:44:15;;;;;;;9.73;6.63;;;21.60;99.90;;;;;;5039455;28;20098;-66
2023/08/17 07:46:41;;;;;;;8.32;5.68;;;21.50;99.90;;;;;;5047779;28;20025;-65
2023/08/17 07:49:06;;;;;;;8.95;6.13;;;21.60;99.90;;;;;;5044599;28;20029;-63
2023/08/17 07:51:33;;;;;;;12.68;6.13;;;21.70;99.90;;;;;;5041326;28;20017;-65
2023/08/17 07:54:00;;;;;;;8.55;6.20;;;21.70;99.90;;;;;;5038211;28;20103;-65
2023/08/17 07:56:26;;;;;;;9.15;5.88;;;21.70;99.90;;;;;;5048880;28;20037;-64
2023/08/17 07:58:57;;;;;;;8.38;5.97;;;21.50;99.90;;;;;;5047399;28;20041;-64
2023/08/17 08:01:23;;;;;;;14.85;6.75;;;21.40;99.90;;;;;;5045857;28;20029;-66
2023/08/17 08:03:49;;;;;;;9.52;5.93;;;21.40;99.90;;;;;;5043295;28;20032;-66
2023/08/17 08:06:14;;;;;;;7.70;5.38;;;21.30;99.90;;;;;;5047653;28;20032;-65
2023/08/17 08:08:40;;;;;;;11.43;6.20;;;21.30;99.90;;;;;;5048499;28;20556;-65
2023/08/17 08:11:06;;;;;;;9.48;5.82;;;21.50;99.90;;;;;;5046389;28;20060;-65
2023/08/17 08:13:32;;;;;;;7.00;5.00;;;21.70;99.90;;;;;;5040952;28;20098;-65
2023/08/17 08:15:59;;;;;;;13.25;6.30;;;21.70;99.90;;;;;;5049349;28;20102;-65
2023/08/17 08:18:25;;;;;;;14.23;7.05;;;21.70;99.90;;;;;;5045235;28;20433;-65
2023/08/17 08:20:51;;;;;;;10.02;6.43;;;21.60;99.90;;;;;;5045011;28;20372;-65
2023/08/17 08:23:17;;;;;;;9.95;6.15;;;21.60;99.90;;;;;;5046068;28;20047;-65
2023/08/17 08:25:42;;;;;;;8.25;5.78;;;21.60;99.90;;;;;;5048012;28;20031;-66
2023/08/17 08:28:09;;;;;;;9.98;5.63;;;21.40;99.90;;;;;;5042851;28;20017;-66
2023/08/17 08:30:34;;;;;;;9.18;5.25;;;21.20;99.90;;;;;;5042530;28;20018;-66
2023/08/17 08:33:01;;;;;;;11.00;5.80;;;21.20;99.90;;;;;;5041624;28;20032;-66
2023/08/17 08:35:29;;;;;;;8.85;5.55;;;21.20;99.90;;;;;;5025005;28;20045;-66
2023/08/17 08:37:55;;;;;;;14.05;6.15;;;21.20;99.90;;;;;;5042118;28;20052;-66
2023/08/17 08:40:28;;;;;;;9.18;5.18;;;21.30;99.90;;;;;;5050803;28;20033;-66
2023/08/17 08:42:54;;;;;;;8.80;5.30;;;21.60;99.90;;;;;;5040831;28;20074;-65
2023/08/17 08:45:22;;;;;;;7.80;5.25;;;21.70;99.90;;;;;;5041046;28;20037;-65
2023/08/17 08:47:49;;;;;;;8.07;5.40;;;21.60;99.90;;;;;;5045013;28;20033;-67
2023/08/17 08:50:18;;;;;;;9.48;5.57;;;21.70;99.90;;;;;;5048930;28;20486;-66
2023/08/17 08:52:59;;;;;;;9.13;4.90;;;21.80;99.90;;;;;;5050089;28;20051;-65
2023/08/17 08:55:36;;;;;;;8.50;4.75;;;21.80;99.90;;;;;;5050357;28;20032;-65
2023/08/17 08:58:04;;;;;;;6.30;5.03;;;21.90;99.90;;;;;;5034082;28;20415;-66
2023/08/17 09:00:30;;;;;;;6.65;5.30;;;22.00;99.90;;;;;;5049753;28;20502;-66
2023/08/17 09:02:57;;;;;;;13.98;5.55;;;22.00;99.90;;;;;;5041848;28;20037;-65
2023/08/17 09:05:23;;;;;;;12.98;5.63;;;22.10;99.90;;;;;;5048481;28;20029;-65
2023/08/17 09:07:50;;;;;;;6.95;4.88;;;22.20;99.90;;;;;;5039790;28;20049;-65
2023/08/17 09:10:16;;;;;;;9.15;5.72;;;22.50;99.90;;;;;;5050169;28;20382;-66
2023/08/17 09:12:43;;;;;;;11.48;5.40;;;22.80;99.90;;;;;;5043676;28;20090;-65
2023/08/17 09:15:10;;;;;;;6.90;5.13;;;22.70;99.90;;;;;;5041908;28;20056;-65
2023/08/17 09:17:35;;;;;;;12.50;5.32;;;23.00;99.90;;;;;;5039917;28;20080;-65
2023/08/17 09:20:02;;;;;;;7.28;5.18;;;23.30;99.90;;;;;;5045492;28;20613;-65
2023/08/17 09:22:41;;;;;;;7.32;5.30;;;23.40;99.90;;;;;;5041254;28;20026;-66
2023/08/17 09:25:09;;;;;;;7.97;4.70;;;23.30;99.90;;;;;;5049901;28;20429;-66
2023/08/17 09:27:36;;;;;;;9.55;4.35;;;23.50;99.90;;;;;;5038088;28;20047;-65
2023/08/17 09:30:10;;;;;;;8.10;5.25;;;23.60;99.90;;;;;;5047875;28;20221;-65
2023/08/17 09:32:37;;;;;;;6.75;4.43;;;23.80;99.90;;;;;;5049445;28;20020;-65
2023/08/17 09:35:05;;;;;;;12.98;5.72;;;23.60;99.90;;;;;;5018224;28;20412;-66
2023/08/17 09:37:31;;;;;;;6.53;5.15;;;23.80;99.90;;;;;;5039477;28;20025;-66
2023/08/17 09:39:57;;;;;;;5.35;4.18;;;23.90;99.90;;;;;;5046858;28;20025;-65
2023/08/17 09:42:25;;;;;;;6.45;4.38;;;24.00;99.90;;;;;;5041997;28;20032;-65
2023/08/17 09:44:52;;;;;;;7.68;5.57;;;24.20;99.90;;;;;;5043744;28;20139;-65
2023/08/17 09:47:18;;;;;;;6.78;4.60;;;24.30;99.90;;;;;;5042191;28;20777;-64
2023/08/17 09:49:53;;;;;;;5.43;4.43;;;24.10;99.90;;;;;;5044861;28;20021;-64
2023/08/17 09:52:23;;;;;;;7.07;4.05;;;24.40;99.90;;;;;;5042611;28;20053;-65
2023/08/17 09:54:52;;;;;;;4.15;3.45;;;24.10;99.90;;;;;;5045612;28;20029;-64
2023/08/17 09:57:17;;;;;;;3.97;3.35;;;24.30;99.90;;;;;;5046814;28;20029;-66
2023/08/17 09:59:43;;;;;;;9.00;3.58;;;24.30;99.90;;;;;;5045766;28;20394;-65
2023/08/17 10:02:19;;;;;;;5.05;3.38;;;24.10;99.90;;;;;;5045311;28;20028;-65
2023/08/17 10:04:51;;;;;;;4.60;3.40;;;24.40;99.90;;;;;;5043780;28;20033;-64
2023/08/17 10:07:20;;;;;;;7.53;3.35;;;24.70;99.90;;;;;;5042613;28;20025;-65
2023/08/17 10:09:54;;;;;;;4.88;3.13;;;24.80;99.90;;;;;;5047766;28;20055;-65
2023/08/17 10:12:23;;;;;;;10.48;3.17;;;25.10;99.90;;;;;;5045109;28;20356;-65
2023/08/17 10:14:59;;;;;;;6.60;3.55;;;25.20;99.90;;;;;;5042122;28;20101;-64
2023/08/17 10:17:34;;;;;;;8.77;3.33;;;25.60;99.90;;;;;;5038719;28;20520;-66
2023/08/17 10:20:01;;;;;;;4.82;3.42;;;25.70;99.90;;;;;;5033033;28;20129;-65
2023/08/17 10:22:51;;;;;;;3.40;2.47;;;25.40;99.90;;;;;;5044173;28;20091;-65
2023/08/17 10:25:19;;;;;;;3.35;2.92;;;25.40;99.90;;;;;;5043699;28;20026;-66
2023/08/17 10:27:45;;;;;;;5.60;3.03;;;25.00;99.90;;;;;;5038023;28;20024;-65
2023/08/17 10:30:12;;;;;;;7.07;3.05;;;25.00;99.90;;;;;;5041004;28;20497;-66
2023/08/17 10:32:41;;;;;;;5.40;2.80;;;25.00;99.90;;;;;;5041224;28;20025;-65
2023/08/17 10:35:07;;;;;;;5.18;2.95;;;25.30;99.90;;;;;;5034126;28;20083;-65
2023/08/17 10:37:34;;;;;;;5.38;2.90;;;25.90;99.90;;;;;;5016074;28;20079;-65
2023/08/17 10:39:59;;;;;;;6.13;3.25;;;26.70;99.90;;;;;;5042830;28;20082;-66
2023/08/17 10:42:32;;;;;;;3.83;3.10;;;26.80;99.90;;;;;;5044350;28;20048;-66
2023/08/17 10:44:58;;;;;;;3.42;2.50;;;27.30;99.90;;;;;;5035581;28;20025;-65
2023/08/17 10:47:25;;;;;;;4.45;3.05;;;27.70;99.90;;;;;;5035407;28;20094;-66
2023/08/17 10:50:22;;;;;;;3.15;2.22;;;27.30;99.90;;;;;;5047988;28;20832;-66
2023/08/17 10:52:53;;;;;;;4.57;2.50;;;27.20;99.90;;;;;;5044213;28;20029;-66
2023/08/17 10:55:36;;;;;;;3.78;2.63;;;27.50;99.90;;;;;;5041349;28;20025;-65
2023/08/17 10:58:02;;;;;;;4.53;2.28;;;27.10;99.90;;;;;;5045188;28;20043;-65
2023/08/17 11:00:36;;;;;;;3.47;2.33;;;27.00;99.90;;;;;;5046950;28;20033;-66
2023/08/17 11:03:07;;;;;;;2.25;2.00;;;27.00;99.90;;;;;;5042994;28;20437;-66
2023/08/17 11:05:39;;;;;;;2.75;2.17;;;26.80;99.90;;;;;;5036515;28;20073;-66
2023/08/17 11:08:05;;;;;;;2.08;1.88;;;27.00;99.90;;;;;;5034948;28;20029;-67
2023/08/17 11:10:33;;;;;;;4.40;2.97;;;26.80;99.90;;;;;;5041192;28;20390;-65
2023/08/17 11:12:59;;;;;;;5.45;2.72;;;26.80;99.90;;;;;;5043937;28;20036;-66
2023/08/17 11:15:42;;;;;;;4.57;2.58;;;26.70;99.90;;;;;;5040576;28;20064;-65
2023/08/17 11:18:09;;;;;;;4.50;2.67;;;26.30;99.90;;;;;;5049599;28;20036;-65
2023/08/17 11:20:37;;;;;;;6.63;3.00;;;26.40;99.90;;;;;;5036203;28;20033;-65
2023/08/17 11:23:05;;;;;;;5.45;2.78;;;26.00;99.90;;;;;;5039679;28;20025;-66
2023/08/17 11:25:32;;;;;;;6.60;2.90;;;26.10;99.90;;;;;;5030971;28;20724;-65
2023/08/17 11:28:00;;;;;;;4.70;2.90;;;26.10;99.90;;;;;;5033334;28;20024;-65
2023/08/17 11:30:27;;;;;;;6.47;3.13;;;26.10;99.90;;;;;;5037076;28;20052;-65
2023/08/17 11:32:54;;;;;;;3.65;2.70;;;25.90;99.90;;;;;;5034495;28;20036;-66
2023/08/17 11:35:22;;;;;;;5.30;2.70;;;25.70;99.90;;;;;;5017708;28;20014;-65
2023/08/17 11:37:48;;;;;;;4.88;3.05;;;25.60;99.90;;;;;;5031010;28;20555;-65
2023/08/17 11:40:15;;;;;;;2.83;2.33;;;25.50;99.90;;;;;;5039562;28;20028;-65
2023/08/17 11:42:42;;;;;;;4.28;2.55;;;25.60;99.90;;;;;;5039557;28;20071;-65
2023/08/17 11:45:12;;;;;;;4.43;2.45;;;25.70;99.90;;;;;;5038274;28;20021;-67
2023/08/17 11:47:43;;;;;;;4.05;2.60;;;25.60;99.90;;;;;;5037815;28;20100;-65
2023/08/17 11:50:12;;;;;;;6.95;2.10;;;25.80;99.90;;;;;;5039133;28;20608;-65
2023/08/17 11:52:38;;;;;;;5.63;2.67;;;26.40;99.90;;;;;;5040965;28;20032;-65
2023/08/17 11:55:11;;;;;;;3.10;2.05;;;26.50;99.90;;;;;;5043148;28;20020;-66
2023/08/17 11:57:38;;;;;;;3.97;2.60;;;26.50;99.90;;;;;;5037720;28;20047;-65
2023/08/17 12:00:06;;;;;;;6.53;2.40;;;26.80;99.90;;;;;;5039347;28;20032;-66
2023/08/17 12:02:34;;;;;;;4.55;2.50;;;26.30;99.90;;;;;;5041963;28;20025;-65
2023/08/17 12:05:06;;;;;;;2.75;2.13;;;26.40;99.90;;;;;;5042419;28;20029;-65
2023/08/17 12:07:32;;;;;;;4.88;2.15;;;26.50;99.90;;;;;;5040334;28;20124;-66
2023/08/17 12:09:58;;;;;;;3.78;2.22;;;26.20;99.90;;;;;;5043677;28;20025;-65
2023/08/17 12:12:24;;;;;;;4.03;2.38;;;26.30;99.90;;;;;;5034020;28;20739;-65
2023/08/17 12:14:49;;;;;;;5.85;2.50;;;25.90;99.90;;;;;;5034607;28;20029;-65
2023/08/17 12:17:16;;;;;;;2.75;2.03;;;26.00;99.90;;;;;;5038171;28;20100;-65
2023/08/17 12:19:43;;;;;;;3.70;2.35;;;26.40;99.90;;;;;;5038852;28;20039;-64
2023/08/17 12:22:09;;;;;;;3.63;2.25;;;26.50;99.90;;;;;;5034015;28;20037;-64
2023/08/17 12:24:35;;;;;;;7.00;2.42;;;26.80;99.90;;;;;;5040356;28;20041;-65
2023/08/17 12:27:02;;;;;;;3.28;2.45;;;26.60;99.90;;;;;;5035503;28;20035;-65
2023/08/17 12:29:28;;;;;;;2.88;2.50;;;26.70;99.90;;;;;;5040812;28;20037;-65
2023/08/17 12:31:57;;;;;;;4.05;2.17;;;26.90;99.90;;;;;;5032841;28;20030;-61
2023/08/17 12:34:22;;;;;;;5.55;2.33;;;27.10;99.90;;;;;;5037637;28;20123;-65
2023/08/17 12:36:49;;;;;;;7.13;2.55;;;27.00;99.90;;;;;;5009447;28;20536;-65
2023/08/17 12:39:15;;;;;;;3.47;2.65;;;26.80;99.90;;;;;;5029305;28;20056;-65
2023/08/17 12:41:41;;;;;;;4.93;2.60;;;27.00;99.90;;;;;;5031049;28;20047;-65
2023/08/17 12:44:09;;;;;;;5.07;2.95;;;26.60;99.90;;;;;;5035350;28;20022;-65